Pennsauken Township, NJ

7:36 PM EDT on August 03, 2015 (GMT -0400)
Terrace Ave | | Change Station
CLOSE
Current Station
Personal Weather Station
Location: Merchantville, NJ
Elevation: 30 ft
Nearby Weather Stations

Elev 30 ft 39.94 °N, 75.06 °W | Updated 28 seconds ago

Partly Cloudy
Partly Cloudy
87.1 °F
Feels Like 86 °F
N
0.0
Wind Variable Wind from SW
Gusts 0.0 mph

Today
High -- | Low -- °F
--% Chance of Precip.
Yesterday
High -- | Low -- °F
Precip. -- in
6:00 AM 8:11 PM
Waning Gibbous, 83% visible
Pressure 29.81 in
Visibility 10.0 miles
Clouds Few 5500 ft
Few 12000 ft
Scattered Clouds 20000 ft
Scattered Clouds 26000 ft
Heat Index 86 °F
Dew Point 58 °F
Humidity 38%
Rainfall 0.00 in
Snow Depth Not available.
UV 1 out of 12
Pollen 8.30 out of 12
Air Quality Not available.
Flu Activity Not available.
METAR KPHL 032254Z 23013KT 10SM FEW055 FEW120 SCT200 SCT260 32/17 A2980 RMK AO2 SLP092 T03170172

More Conditions Fewer Conditions

Pressure 29.81 in
Visibility 10.0 miles
Clouds Few 5500 ft
Few 12000 ft
Scattered Clouds 20000 ft
Scattered Clouds 26000 ft
Heat Index 86 °F
Dew Point 58 °F
Humidity 38%
Rainfall 0.00 in
Snow Depth Not available.
UV 1 out of 12
Pollen 8.30 out of 12
Air Quality Not available.
Flu Activity Not available.
METAR KPHL 032254Z 23013KT 10SM FEW055 FEW120 SCT200 SCT260 32/17 A2980 RMK AO2 SLP092 T03170172

More Conditions Fewer Conditions

10-Day Weather Forecast

×

Almanac

Astronomy

Aug. 03, 2015 Rise Set
Actual Time
Civil Twilight
Nautical Twilight
Astronomical Twilight
Moon
Length of Visible Light
Length of Day
Tomorrow will be .
, % of the Moon is Illuminated

Today's Extremes

State Highs State Lows

Community

WunderPhotos

Upload Photos

1,843,790 photos uploaded!

WunderBlogs® & News

Nearby

Air Quality

  Air Quality AQ Index Pollutant
Not available.

Snow Depth

Station Depth Elevation

Earthquake Activity

City Distance Mag. Time & Date
Minimum magnitude displayed is 2.5.

Coastal Water Temperatures

Place Temperature

Stations

Nearby Weather Stations

Station Location Temp. Windchill Dew Point Humidity Wind Precip. Elev Updated Type